Terminal Aerodrome Forecast
Issued by NWS St Louis, MO

Home | Current Version | Previous Version | Text Only | Print | Product List | Glossary On
Versions: 1 2 3 4 5 6 7 8 9 10 11 12 13 14
219
FTUS43 KLSX 221720
TAFCOU
TAF
KCOU 221720Z 2218/2318 17012KT P6SM BKN025
     FM222100 18009KT P6SM BKN035
     FM230900 21005KT P6SM VCTS BKN040CB
     FM231200 28005KT P6SM OVC015
     FM231300 34007KT P6SM BKN010
     FM231500 35010G18KT P6SM BKN020=

USA.gov is the U.S. government's official web portal to all federal, state and local government web resources and services.